sensor_id;sensor_type;location;lat;lon;timestamp;pressure;altitude;pressure_sealevel;temperature
78859;BMP280;68210;52.032;4.634;2023-06-04T00:01:39;102141.47;;;16.29
78859;BMP280;68210;52.032;4.634;2023-06-04T00:03:40;102142.50;;;16.55
78859;BMP280;68210;52.032;4.634;2023-06-04T00:05:40;102137.66;;;16.48
78859;BMP280;68210;52.032;4.634;2023-06-04T00:07:40;102140.81;;;16.50
78859;BMP280;68210;52.032;4.634;2023-06-04T00:09:41;102146.63;;;16.64
78859;BMP280;68210;52.032;4.634;2023-06-04T00:11:41;102142.09;;;16.38
78859;BMP280;68210;52.032;4.634;2023-06-04T00:13:45;102139.78;;;16.40
78859;BMP280;68210;52.032;4.634;2023-06-04T00:15:45;102140.50;;;16.37
78859;BMP280;68210;52.032;4.634;2023-06-04T00:17:45;102136.78;;;16.44
78859;BMP280;68210;52.032;4.634;2023-06-04T00:19:46;102147.31;;;16.42
78859;BMP280;68210;52.032;4.634;2023-06-04T00:21:46;102138.94;;;16.36
78859;BMP280;68210;52.032;4.634;2023-06-04T00:23:46;102138.59;;;16.22
78859;BMP280;68210;52.032;4.634;2023-06-04T00:25:47;102138.75;;;16.29
78859;BMP280;68210;52.032;4.634;2023-06-04T00:27:47;102132.53;;;16.13
78859;BMP280;68210;52.032;4.634;2023-06-04T00:29:47;102126.22;;;15.97
78859;BMP280;68210;52.032;4.634;2023-06-04T00:31:48;102143.78;;;15.96
78859;BMP280;68210;52.032;4.634;2023-06-04T00:33:48;102144.75;;;15.88
78859;BMP280;68210;52.032;4.634;2023-06-04T00:35:48;102143.25;;;15.91
78859;BMP280;68210;52.032;4.634;2023-06-04T00:37:49;102137.44;;;15.92
78859;BMP280;68210;52.032;4.634;2023-06-04T00:39:50;102143.00;;;15.96
78859;BMP280;68210;52.032;4.634;2023-06-04T00:41:50;102149.16;;;15.93
78859;BMP280;68210;52.032;4.634;2023-06-04T00:43:51;102148.94;;;16.13
78859;BMP280;68210;52.032;4.634;2023-06-04T00:45:58;102152.53;;;16.17
78859;BMP280;68210;52.032;4.634;2023-06-04T00:47:59;102144.50;;;16.09
78859;BMP280;68210;52.032;4.634;2023-06-04T00:49:59;102140.78;;;16.01
78859;BMP280;68210;52.032;4.634;2023-06-04T00:52:00;102148.13;;;15.97
78859;BMP280;68210;52.032;4.634;2023-06-04T00:54:02;102151.47;;;15.76
78859;BMP280;68210;52.032;4.634;2023-06-04T00:56:08;102138.84;;;16.02
78859;BMP280;68210;52.032;4.634;2023-06-04T00:58:08;102140.97;;;15.93
78859;BMP280;68210;52.032;4.634;2023-06-04T01:00:10;102156.31;;;15.97
78859;BMP280;68210;52.032;4.634;2023-06-04T01:02:19;102139.63;;;16.02
78859;BMP280;68210;52.032;4.634;2023-06-04T01:06:36;102153.06;;;15.92
78859;BMP280;68210;52.032;4.634;2023-06-04T01:08:39;102148.84;;;15.94
78859;BMP280;68210;52.032;4.634;2023-06-04T01:10:55;102149.53;;;15.76
78859;BMP280;68210;52.032;4.634;2023-06-04T01:12:56;102152.34;;;15.80
78859;BMP280;68210;52.032;4.634;2023-06-04T01:14:56;102153.41;;;15.90
78859;BMP280;68210;52.032;4.634;2023-06-04T01:17:03;102145.38;;;15.82
78859;BMP280;68210;52.032;4.634;2023-06-04T01:19:17;102150.66;;;15.90
78859;BMP280;68210;52.032;4.634;2023-06-04T01:21:21;102152.69;;;15.78
78859;BMP280;68210;52.032;4.634;2023-06-04T01:23:43;102152.88;;;15.85
78859;BMP280;68210;52.032;4.634;2023-06-04T01:25:47;102145.56;;;15.89
78859;BMP280;68210;52.032;4.634;2023-06-04T01:27:51;102153.78;;;15.89
78859;BMP280;68210;52.032;4.634;2023-06-04T01:29:52;102151.38;;;15.87
78859;BMP280;68210;52.032;4.634;2023-06-04T01:31:53;102146.88;;;15.80
78859;BMP280;68210;52.032;4.634;2023-06-04T01:33:54;102157.28;;;15.89
78859;BMP280;68210;52.032;4.634;2023-06-04T01:35:58;102154.47;;;15.71
78859;BMP280;68210;52.032;4.634;2023-06-04T01:37:58;102149.56;;;15.49
78859;BMP280;68210;52.032;4.634;2023-06-04T01:39:58;102149.41;;;15.57
78859;BMP280;68210;52.032;4.634;2023-06-04T01:41:59;102144.66;;;15.70
78859;BMP280;68210;52.032;4.634;2023-06-04T01:43:59;102156.41;;;15.85
78859;BMP280;68210;52.032;4.634;2023-06-04T01:46:00;102142.47;;;15.90
78859;BMP280;68210;52.032;4.634;2023-06-04T01:48:04;102138.03;;;16.01
78859;BMP280;68210;52.032;4.634;2023-06-04T01:50:06;102141.81;;;15.97
78859;BMP280;68210;52.032;4.634;2023-06-04T01:52:09;102137.25;;;15.85
78859;BMP280;68210;52.032;4.634;2023-06-04T01:54:11;102139.19;;;16.00
78859;BMP280;68210;52.032;4.634;2023-06-04T01:56:11;102142.09;;;16.07
78859;BMP280;68210;52.032;4.634;2023-06-04T01:58:13;102134.56;;;16.16
78859;BMP280;68210;52.032;4.634;2023-06-04T02:00:13;102141.84;;;16.12
78859;BMP280;68210;52.032;4.634;2023-06-04T02:02:14;102128.97;;;16.12
78859;BMP280;68210;52.032;4.634;2023-06-04T02:04:15;102131.38;;;16.14
78859;BMP280;68210;52.032;4.634;2023-06-04T02:06:15;102125.41;;;15.97
78859;BMP280;68210;52.032;4.634;2023-06-04T02:08:16;102135.50;;;15.93
78859;BMP280;68210;52.032;4.634;2023-06-04T02:10:19;102136.13;;;15.86
78859;BMP280;68210;52.032;4.634;2023-06-04T02:12:20;102144.59;;;15.81
78859;BMP280;68210;52.032;4.634;2023-06-04T02:14:20;102143.06;;;15.69
78859;BMP280;68210;52.032;4.634;2023-06-04T02:16:20;102138.59;;;15.76
78859;BMP280;68210;52.032;4.634;2023-06-04T02:18:21;102141.66;;;15.75
78859;BMP280;68210;52.032;4.634;2023-06-04T02:20:22;102133.88;;;15.61
78859;BMP280;68210;52.032;4.634;2023-06-04T02:22:24;102136.72;;;15.65
78859;BMP280;68210;52.032;4.634;2023-06-04T02:24:25;102132.22;;;15.57
78859;BMP280;68210;52.032;4.634;2023-06-04T02:26:25;102133.09;;;15.61
78859;BMP280;68210;52.032;4.634;2023-06-04T02:28:25;102136.00;;;15.52
78859;BMP280;68210;52.032;4.634;2023-06-04T02:30:26;102136.06;;;15.14
78859;BMP280;68210;52.032;4.634;2023-06-04T02:32:26;102132.22;;;15.30
78859;BMP280;68210;52.032;4.634;2023-06-04T02:34:27;102143.66;;;15.47
78859;BMP280;68210;52.032;4.634;2023-06-04T02:36:28;102138.91;;;15.44
78859;BMP280;68210;52.032;4.634;2023-06-04T02:38:28;102138.53;;;15.46
78859;BMP280;68210;52.032;4.634;2023-06-04T02:40:29;102147.91;;;15.18
78859;BMP280;68210;52.032;4.634;2023-06-04T02:42:29;102147.66;;;15.22
78859;BMP280;68210;52.032;4.634;2023-06-04T02:44:30;102151.22;;;15.38
78859;BMP280;68210;52.032;4.634;2023-06-04T02:46:30;102143.81;;;15.39
78859;BMP280;68210;52.032;4.634;2023-06-04T02:48:30;102138.84;;;15.29
78859;BMP280;68210;52.032;4.634;2023-06-04T02:50:31;102140.38;;;15.42
78859;BMP280;68210;52.032;4.634;2023-06-04T02:52:31;102145.34;;;15.51
78859;BMP280;68210;52.032;4.634;2023-06-04T02:54:33;102151.25;;;15.11
78859;BMP280;68210;52.032;4.634;2023-06-04T02:56:33;102138.13;;;15.05
78859;BMP280;68210;52.032;4.634;2023-06-04T02:58:34;102135.03;;;15.18
78859;BMP280;68210;52.032;4.634;2023-06-04T03:00:39;102133.91;;;15.07
78859;BMP280;68210;52.032;4.634;2023-06-04T03:02:47;102140.06;;;15.04
78859;BMP280;68210;52.032;4.634;2023-06-04T03:04:47;102128.31;;;15.16
78859;BMP280;68210;52.032;4.634;2023-06-04T03:06:51;102132.53;;;15.13
78859;BMP280;68210;52.032;4.634;2023-06-04T03:08:57;102138.44;;;15.42
78859;BMP280;68210;52.032;4.634;2023-06-04T03:10:57;102135.09;;;15.33
78859;BMP280;68210;52.032;4.634;2023-06-04T03:12:58;102137.75;;;15.18
78859;BMP280;68210;52.032;4.634;2023-06-04T03:14:58;102138.78;;;15.14
78859;BMP280;68210;52.032;4.634;2023-06-04T03:17:00;102128.16;;;15.24
78859;BMP280;68210;52.032;4.634;2023-06-04T03:19:10;102126.75;;;15.30
78859;BMP280;68210;52.032;4.634;2023-06-04T03:21:11;102134.25;;;15.18
78859;BMP280;68210;52.032;4.634;2023-06-04T03:23:12;102127.59;;;15.30
78859;BMP280;68210;52.032;4.634;2023-06-04T03:25:12;102139.06;;;15.09
78859;BMP280;68210;52.032;4.634;2023-06-04T03:27:12;102136.97;;;15.18
78859;BMP280;68210;52.032;4.634;2023-06-04T03:29:13;102138.28;;;14.96
78859;BMP280;68210;52.032;4.634;2023-06-04T03:31:13;102129.06;;;15.01
78859;BMP280;68210;52.032;4.634;2023-06-04T03:33:15;102134.50;;;15.01
78859;BMP280;68210;52.032;4.634;2023-06-04T03:35:15;102139.50;;;15.11
78859;BMP280;68210;52.032;4.634;2023-06-04T03:37:16;102139.00;;;15.20
78859;BMP280;68210;52.032;4.634;2023-06-04T03:39:17;102140.97;;;15.08
78859;BMP280;68210;52.032;4.634;2023-06-04T03:41:17;102138.91;;;15.05
78859;BMP280;68210;52.032;4.634;2023-06-04T03:43:19;102138.56;;;15.07
78859;BMP280;68210;52.032;4.634;2023-06-04T03:45:19;102144.38;;;15.17
78859;BMP280;68210;52.032;4.634;2023-06-04T03:47:19;102136.59;;;15.19
78859;BMP280;68210;52.032;4.634;2023-06-04T03:49:20;102133.25;;;15.10
78859;BMP280;68210;52.032;4.634;2023-06-04T03:51:21;102139.00;;;15.20
78859;BMP280;68210;52.032;4.634;2023-06-04T03:53:22;102140.16;;;15.08
78859;BMP280;68210;52.032;4.634;2023-06-04T03:55:22;102133.34;;;15.14
78859;BMP280;68210;52.032;4.634;2023-06-04T03:57:23;102147.91;;;15.06
78859;BMP280;68210;52.032;4.634;2023-06-04T03:59:23;102137.97;;;14.86
78859;BMP280;68210;52.032;4.634;2023-06-04T04:01:23;102140.44;;;14.91
78859;BMP280;68210;52.032;4.634;2023-06-04T04:03:24;102145.88;;;15.15
78859;BMP280;68210;52.032;4.634;2023-06-04T04:05:24;102144.00;;;15.19
78859;BMP280;68210;52.032;4.634;2023-06-04T04:07:24;102131.56;;;15.48
78859;BMP280;68210;52.032;4.634;2023-06-04T04:09:25;102139.88;;;15.51
78859;BMP280;68210;52.032;4.634;2023-06-04T04:11:25;102143.44;;;15.40
78859;BMP280;68210;52.032;4.634;2023-06-04T04:13:26;102147.84;;;15.29
78859;BMP280;68210;52.032;4.634;2023-06-04T04:15:26;102143.44;;;15.40
78859;BMP280;68210;52.032;4.634;2023-06-04T04:17:26;102136.16;;;15.44
78859;BMP280;68210;52.032;4.634;2023-06-04T04:19:27;102147.00;;;15.14
78859;BMP280;68210;52.032;4.634;2023-06-04T04:21:28;102143.06;;;15.26
78859;BMP280;68210;52.032;4.634;2023-06-04T04:23:29;102140.41;;;15.15
78859;BMP280;68210;52.032;4.634;2023-06-04T04:25:30;102143.91;;;15.42
78859;BMP280;68210;52.032;4.634;2023-06-04T04:27:32;102135.91;;;15.49
78859;BMP280;68210;52.032;4.634;2023-06-04T04:29:35;102135.47;;;15.47
78859;BMP280;68210;52.032;4.634;2023-06-04T04:31:35;102142.00;;;15.58
78859;BMP280;68210;52.032;4.634;2023-06-04T04:33:36;102143.81;;;15.39
78859;BMP280;68210;52.032;4.634;2023-06-04T04:35:39;102138.91;;;15.44
78859;BMP280;68210;52.032;4.634;2023-06-04T04:37:40;102141.09;;;15.54
78859;BMP280;68210;52.032;4.634;2023-06-04T04:39:40;102145.28;;;15.79
78859;BMP280;68210;52.032;4.634;2023-06-04T04:41:41;102150.47;;;15.68
78859;BMP280;68210;52.032;4.634;2023-06-04T04:43:41;102141.63;;;15.59
78859;BMP280;68210;52.032;4.634;2023-06-04T04:45:41;102148.88;;;15.52
78859;BMP280;68210;52.032;4.634;2023-06-04T04:47:42;102141.91;;;15.70
78859;BMP280;68210;52.032;4.634;2023-06-04T04:49:42;102136.03;;;15.68
78859;BMP280;68210;52.032;4.634;2023-06-04T04:51:42;102138.41;;;15.84
78859;BMP280;68210;52.032;4.634;2023-06-04T04:53:43;102140.69;;;15.82
78859;BMP280;68210;52.032;4.634;2023-06-04T04:55:43;102142.19;;;15.80
78859;BMP280;68210;52.032;4.634;2023-06-04T04:57:43;102136.91;;;15.87
78859;BMP280;68210;52.032;4.634;2023-06-04T04:59:44;102140.44;;;16.03
78859;BMP280;68210;52.032;4.634;2023-06-04T05:01:44;102128.53;;;15.95
78859;BMP280;68210;52.032;4.634;2023-06-04T05:03:45;102142.09;;;16.07
78859;BMP280;68210;52.032;4.634;2023-06-04T05:05:45;102132.94;;;16.15
78859;BMP280;68210;52.032;4.634;2023-06-04T05:07:46;102141.59;;;16.17
78859;BMP280;68210;52.032;4.634;2023-06-04T05:09:46;102140.44;;;16.18
78859;BMP280;68210;52.032;4.634;2023-06-04T05:11:47;102142.47;;;16.21
78859;BMP280;68210;52.032;4.634;2023-06-04T05:13:47;102147.41;;;16.31
78859;BMP280;68210;52.032;4.634;2023-06-04T05:15:47;102150.91;;;16.46
78859;BMP280;68210;52.032;4.634;2023-06-04T05:17:48;102153.22;;;16.44
78859;BMP280;68210;52.032;4.634;2023-06-04T05:19:49;102144.91;;;16.56
78859;BMP280;68210;52.032;4.634;2023-06-04T05:21:49;102154.94;;;16.68
78859;BMP280;68210;52.032;4.634;2023-06-04T05:23:50;102147.53;;;16.53
78859;BMP280;68210;52.032;4.634;2023-06-04T05:25:50;102150.63;;;16.67
78859;BMP280;68210;52.032;4.634;2023-06-04T05:27:52;102148.22;;;16.65
78859;BMP280;68210;52.032;4.634;2023-06-04T05:29:52;102153.88;;;16.72
78859;BMP280;68210;52.032;4.634;2023-06-04T05:31:52;102160.19;;;16.76
78859;BMP280;68210;52.032;4.634;2023-06-04T05:33:53;102146.47;;;16.91
78859;BMP280;68210;52.032;4.634;2023-06-04T05:35:53;102154.81;;;16.98
78859;BMP280;68210;52.032;4.634;2023-06-04T05:37:54;102158.34;;;16.99
78859;BMP280;68210;52.032;4.634;2023-06-04T05:39:55;102160.28;;;16.98
78859;BMP280;68210;52.032;4.634;2023-06-04T05:41:56;102159.22;;;17.02
78859;BMP280;68210;52.032;4.634;2023-06-04T05:43:57;102163.53;;;17.03
78859;BMP280;68210;52.032;4.634;2023-06-04T05:45:57;102149.44;;;17.20
78859;BMP280;68210;52.032;4.634;2023-06-04T05:47:57;102150.50;;;17.34
78859;BMP280;68210;52.032;4.634;2023-06-04T05:49:58;102160.25;;;17.32
78859;BMP280;68210;52.032;4.634;2023-06-04T05:51:58;102156.78;;;17.35
78859;BMP280;68210;52.032;4.634;2023-06-04T05:53:58;102155.75;;;17.43
78859;BMP280;68210;52.032;4.634;2023-06-04T05:55:59;102165.66;;;17.47
78859;BMP280;68210;52.032;4.634;2023-06-04T05:57:59;102160.22;;;17.51
78859;BMP280;68210;52.032;4.634;2023-06-04T06:00:00;102168.19;;;17.37
78859;BMP280;68210;52.032;4.634;2023-06-04T06:02:00;102165.72;;;17.73
78859;BMP280;68210;52.032;4.634;2023-06-04T06:04:01;102154.94;;;17.83
78859;BMP280;68210;52.032;4.634;2023-06-04T06:06:01;102164.09;;;17.91
78859;BMP280;68210;52.032;4.634;2023-06-04T06:08:01;102149.69;;;17.97
78859;BMP280;68210;52.032;4.634;2023-06-04T06:10:03;102149.31;;;18.17
78859;BMP280;68210;52.032;4.634;2023-06-04T06:12:03;102165.84;;;18.46
78859;BMP280;68210;52.032;4.634;2023-06-04T06:14:05;102153.78;;;18.28
78859;BMP280;68210;52.032;4.634;2023-06-04T06:16:06;102159.28;;;18.28
78859;BMP280;68210;52.032;4.634;2023-06-04T06:18:06;102153.66;;;18.44
78859;BMP280;68210;52.032;4.634;2023-06-04T06:20:07;102165.13;;;18.27
78859;BMP280;68210;52.032;4.634;2023-06-04T06:22:08;102153.00;;;18.06
78859;BMP280;68210;52.032;4.634;2023-06-04T06:24:08;102157.94;;;17.97
78859;BMP280;68210;52.032;4.634;2023-06-04T06:26:08;102164.56;;;18.15
78859;BMP280;68210;52.032;4.634;2023-06-04T06:28:09;102154.97;;;18.27
78859;BMP280;68210;52.032;4.634;2023-06-04T06:30:09;102165.72;;;18.39
78859;BMP280;68210;52.032;4.634;2023-06-04T06:32:11;102157.50;;;18.65
78859;BMP280;68210;52.032;4.634;2023-06-04T06:34:11;102165.16;;;18.53
78859;BMP280;68210;52.032;4.634;2023-06-04T06:36:12;102162.09;;;18.57
78859;BMP280;68210;52.032;4.634;2023-06-04T06:38:12;102158.19;;;18.58
78859;BMP280;68210;52.032;4.634;2023-06-04T06:40:13;102161.47;;;18.42
78859;BMP280;68210;52.032;4.634;2023-06-04T06:42:13;102163.13;;;18.02
78859;BMP280;68210;52.032;4.634;2023-06-04T06:44:14;102163.34;;;18.12
78859;BMP280;68210;52.032;4.634;2023-06-04T06:46:14;102171.28;;;18.17
78859;BMP280;68210;52.032;4.634;2023-06-04T06:48:15;102190.53;;;18.21
78859;BMP280;68210;52.032;4.634;2023-06-04T06:50:15;102178.59;;;18.10
78859;BMP280;68210;52.032;4.634;2023-06-04T06:52:15;102189.91;;;18.08
78859;BMP280;68210;52.032;4.634;2023-06-04T06:54:19;102172.50;;;18.20
78859;BMP280;68210;52.032;4.634;2023-06-04T06:56:22;102183.63;;;18.08
78859;BMP280;68210;52.032;4.634;2023-06-04T06:58:22;102172.34;;;17.91
78859;BMP280;68210;52.032;4.634;2023-06-04T07:00:23;102180.59;;;18.13
78859;BMP280;68210;52.032;4.634;2023-06-04T07:02:24;102175.72;;;18.25
78859;BMP280;68210;52.032;4.634;2023-06-04T07:04:25;102179.25;;;18.51
78859;BMP280;68210;52.032;4.634;2023-06-04T07:06:26;102182.44;;;18.53
78859;BMP280;68210;52.032;4.634;2023-06-04T07:08:26;102188.88;;;18.38
78859;BMP280;68210;52.032;4.634;2023-06-04T07:10:27;102175.72;;;18.25
78859;BMP280;68210;52.032;4.634;2023-06-04T07:12:27;102174.59;;;18.81
78859;BMP280;68210;52.032;4.634;2023-06-04T07:14:27;102179.00;;;18.88
78859;BMP280;68210;52.032;4.634;2023-06-04T07:16:28;102179.69;;;18.79
78859;BMP280;68210;52.032;4.634;2023-06-04T07:18:29;102172.19;;;19.05
78859;BMP280;68210;52.032;4.634;2023-06-04T07:20:29;102181.00;;;19.17
78859;BMP280;68210;52.032;4.634;2023-06-04T07:22:30;102185.09;;;19.30
78859;BMP280;68210;52.032;4.634;2023-06-04T07:24:31;102170.22;;;19.70
78859;BMP280;68210;52.032;4.634;2023-06-04T07:26:32;102179.16;;;19.60
78859;BMP280;68210;52.032;4.634;2023-06-04T07:28:32;102170.19;;;20.03
78859;BMP280;68210;52.032;4.634;2023-06-04T07:30:32;102170.06;;;19.92
78859;BMP280;68210;52.032;4.634;2023-06-04T07:32:33;102174.94;;;20.09
78859;BMP280;68210;52.032;4.634;2023-06-04T07:34:33;102184.00;;;19.70
78859;BMP280;68210;52.032;4.634;2023-06-04T07:36:34;102165.25;;;19.82
78859;BMP280;68210;52.032;4.634;2023-06-04T07:38:34;102172.63;;;20.14
78859;BMP280;68210;52.032;4.634;2023-06-04T07:40:34;102173.69;;;20.46
78859;BMP280;68210;52.032;4.634;2023-06-04T07:42:35;102184.88;;;20.67
78859;BMP280;68210;52.032;4.634;2023-06-04T07:44:36;102182.06;;;20.56
78859;BMP280;68210;52.032;4.634;2023-06-04T07:46:38;102181.28;;;20.59
78859;BMP280;68210;52.032;4.634;2023-06-04T07:48:38;102175.41;;;20.61
78859;BMP280;68210;52.032;4.634;2023-06-04T07:50:38;102177.53;;;20.31
78859;BMP280;68210;52.032;4.634;2023-06-04T07:52:40;102169.00;;;20.50
78859;BMP280;68210;52.032;4.634;2023-06-04T07:54:40;102160.44;;;20.65
78859;BMP280;68210;52.032;4.634;2023-06-04T07:56:41;102183.47;;;20.93
78859;BMP280;68210;52.032;4.634;2023-06-04T07:58:43;102169.50;;;21.43
78859;BMP280;68210;52.032;4.634;2023-06-04T08:00:45;102178.03;;;21.14
78859;BMP280;68210;52.032;4.634;2023-06-04T08:02:45;102192.97;;;21.02
78859;BMP280;68210;52.032;4.634;2023-06-04T08:04:46;102181.19;;;21.09
78859;BMP280;68210;52.032;4.634;2023-06-04T08:06:46;102181.13;;;21.02
78859;BMP280;68210;52.032;4.634;2023-06-04T08:08:47;102187.38;;;20.92
78859;BMP280;68210;52.032;4.634;2023-06-04T08:10:48;102187.44;;;20.96
78859;BMP280;68210;52.032;4.634;2023-06-04T08:12:49;102184.19;;;20.80
78859;BMP280;68210;52.032;4.634;2023-06-04T08:14:49;102177.19;;;21.03
78859;BMP280;68210;52.032;4.634;2023-06-04T08:16:50;102184.34;;;21.11
78859;BMP280;68210;52.032;4.634;2023-06-04T08:18:50;102188.31;;;21.17
78859;BMP280;68210;52.032;4.634;2023-06-04T08:20:51;102182.41;;;21.22
78859;BMP280;68210;52.032;4.634;2023-06-04T08:22:51;102189.88;;;21.14
78859;BMP280;68210;52.032;4.634;2023-06-04T08:24:51;102180.56;;;21.43
78859;BMP280;68210;52.032;4.634;2023-06-04T08:26:52;102187.63;;;21.40
78859;BMP280;68210;52.032;4.634;2023-06-04T08:28:52;102192.25;;;21.19
78859;BMP280;68210;52.032;4.634;2023-06-04T08:30:53;102195.00;;;21.19
78859;BMP280;68210;52.032;4.634;2023-06-04T08:32:54;102197.75;;;21.09
78859;BMP280;68210;52.032;4.634;2023-06-04T08:34:54;102185.63;;;21.31
78859;BMP280;68210;52.032;4.634;2023-06-04T08:36:54;102187.13;;;21.21
78859;BMP280;68210;52.032;4.634;2023-06-04T08:38:55;102180.44;;;21.19
78859;BMP280;68210;52.032;4.634;2023-06-04T08:40:59;102189.91;;;21.21
78859;BMP280;68210;52.032;4.634;2023-06-04T08:43:01;102196.97;;;21.15
78859;BMP280;68210;52.032;4.634;2023-06-04T08:45:02;102187.31;;;21.66
78859;BMP280;68210;52.032;4.634;2023-06-04T08:47:04;102192.41;;;21.54
78859;BMP280;68210;52.032;4.634;2023-06-04T08:49:06;102196.81;;;21.68
78859;BMP280;68210;52.032;4.634;2023-06-04T08:51:07;102190.91;;;21.91
78859;BMP280;68210;52.032;4.634;2023-06-04T08:53:11;102188.13;;;21.70
78859;BMP280;68210;52.032;4.634;2023-06-04T08:55:14;102188.50;;;21.62
78859;BMP280;68210;52.032;4.634;2023-06-04T08:57:14;102188.16;;;22.04
78859;BMP280;68210;52.032;4.634;2023-06-04T08:59:15;102204.69;;;21.84
78859;BMP280;68210;52.032;4.634;2023-06-04T09:01:17;102195.16;;;21.50
78859;BMP280;68210;52.032;4.634;2023-06-04T09:03:17;102203.94;;;21.87
78859;BMP280;68210;52.032;4.634;2023-06-04T09:05:21;102199.13;;;21.49
78859;BMP280;68210;52.032;4.634;2023-06-04T09:07:23;102201.47;;;21.47
78859;BMP280;68210;52.032;4.634;2023-06-04T09:09:24;102214.94;;;21.73
78859;BMP280;68210;52.032;4.634;2023-06-04T09:11:33;102216.88;;;21.55
78859;BMP280;68210;52.032;4.634;2023-06-04T09:13:35;102202.69;;;21.67
78859;BMP280;68210;52.032;4.634;2023-06-04T09:15:36;102204.75;;;22.04
78859;BMP280;68210;52.032;4.634;2023-06-04T09:17:36;102200.78;;;21.98
78859;BMP280;68210;52.032;4.634;2023-06-04T09:19:37;102210.63;;;21.86
78859;BMP280;68210;52.032;4.634;2023-06-04T09:21:53;102204.00;;;22.14
78859;BMP280;68210;52.032;4.634;2023-06-04T09:23:53;102198.88;;;22.16
78859;BMP280;68210;52.032;4.634;2023-06-04T09:25:54;102193.69;;;22.01
78859;BMP280;68210;52.032;4.634;2023-06-04T09:27:54;102192.50;;;21.88
78859;BMP280;68210;52.032;4.634;2023-06-04T09:29:58;102198.84;;;22.13
78859;BMP280;68210;52.032;4.634;2023-06-04T09:31:58;102205.91;;;21.93
78859;BMP280;68210;52.032;4.634;2023-06-04T09:33:58;102213.00;;;21.80
78859;BMP280;68210;52.032;4.634;2023-06-04T09:35:59;102200.84;;;22.26
78859;BMP280;68210;52.032;4.634;2023-06-04T09:38:07;102209.94;;;22.44
78859;BMP280;68210;52.032;4.634;2023-06-04T09:46:11;102195.69;;;22.55
78859;BMP280;68210;52.032;4.634;2023-06-04T09:48:19;102209.50;;;22.69
78859;BMP280;68210;52.032;4.634;2023-06-04T09:50:25;102198.88;;;22.54
78859;BMP280;68210;52.032;4.634;2023-06-04T09:52:32;102200.47;;;22.38
78859;BMP280;68210;52.032;4.634;2023-06-04T09:54:39;102194.88;;;22.58
78859;BMP280;68210;52.032;4.634;2023-06-04T09:56:40;102187.34;;;22.97
78859;BMP280;68210;52.032;4.634;2023-06-04T09:58:43;102186.16;;;22.94
78859;BMP280;68210;52.032;4.634;2023-06-04T10:00:45;102209.78;;;23.26
78859;BMP280;68210;52.032;4.634;2023-06-04T10:02:46;102199.97;;;23.08
78859;BMP280;68210;52.032;4.634;2023-06-04T10:04:54;102205.06;;;23.10
78859;BMP280;68210;52.032;4.634;2023-06-04T10:06:56;102202.00;;;22.80
78859;BMP280;68210;52.032;4.634;2023-06-04T10:08:58;102206.31;;;22.74
78859;BMP280;68210;52.032;4.634;2023-06-04T10:11:00;102203.97;;;22.66
78859;BMP280;68210;52.032;4.634;2023-06-04T10:13:05;102187.00;;;22.81
78859;BMP280;68210;52.032;4.634;2023-06-04T10:15:10;102225.31;;;22.62
78859;BMP280;68210;52.032;4.634;2023-06-04T10:17:12;102205.97;;;22.65
78859;BMP280;68210;52.032;4.634;2023-06-04T10:19:14;102200.44;;;22.72
78859;BMP280;68210;52.032;4.634;2023-06-04T10:21:16;102200.41;;;22.83
78859;BMP280;68210;52.032;4.634;2023-06-04T10:23:17;102190.94;;;22.70
78859;BMP280;68210;52.032;4.634;2023-06-04T10:25:19;102190.97;;;22.46
78859;BMP280;68210;52.032;4.634;2023-06-04T10:27:20;102193.75;;;22.46
78859;BMP280;68210;52.032;4.634;2023-06-04T10:29:23;102209.53;;;22.21
78859;BMP280;68210;52.032;4.634;2023-06-04T10:31:23;102201.25;;;22.14
78859;BMP280;68210;52.032;4.634;2023-06-04T10:33:24;102204.41;;;22.16
78859;BMP280;68210;52.032;4.634;2023-06-04T10:35:34;102204.78;;;22.32
78859;BMP280;68210;52.032;4.634;2023-06-04T10:37:35;102210.72;;;22.34
78859;BMP280;68210;52.032;4.634;2023-06-04T10:39:35;102195.72;;;22.49
78859;BMP280;68210;52.032;4.634;2023-06-04T10:41:37;102200.47;;;22.27
78859;BMP280;68210;52.032;4.634;2023-06-04T10:43:37;102208.75;;;22.38
78859;BMP280;68210;52.032;4.634;2023-06-04T10:45:38;102201.63;;;22.57
78859;BMP280;68210;52.032;4.634;2023-06-04T10:47:38;102203.56;;;22.71
78859;BMP280;68210;52.032;4.634;2023-06-04T10:49:41;102205.97;;;22.21
78859;BMP280;68210;52.032;4.634;2023-06-04T10:51:41;102195.72;;;22.11
78859;BMP280;68210;52.032;4.634;2023-06-04T10:53:43;102192.56;;;22.36
78859;BMP280;68210;52.032;4.634;2023-06-04T10:55:45;102190.19;;;22.42
78859;BMP280;68210;52.032;4.634;2023-06-04T10:59:57;102207.06;;;21.75
78859;BMP280;68210;52.032;4.634;2023-06-04T11:02:05;102217.72;;;21.80
78859;BMP280;68210;52.032;4.634;2023-06-04T11:04:06;102203.47;;;21.57
78859;BMP280;68210;52.032;4.634;2023-06-04T11:06:15;102196.44;;;21.80
78859;BMP280;68210;52.032;4.634;2023-06-04T11:08:37;102215.31;;;21.64
78859;BMP280;68210;52.032;4.634;2023-06-04T11:10:43;102212.22;;;21.80
78859;BMP280;68210;52.032;4.634;2023-06-04T11:12:50;102210.22;;;21.80
78859;BMP280;68210;52.032;4.634;2023-06-04T11:14:54;102207.50;;;21.94
78859;BMP280;68210;52.032;4.634;2023-06-04T11:16:55;102209.81;;;21.75
78859;BMP280;68210;52.032;4.634;2023-06-04T11:18:57;102201.50;;;21.64
78859;BMP280;68210;52.032;4.634;2023-06-04T11:21:00;102204.31;;;21.75
78859;BMP280;68210;52.032;4.634;2023-06-04T11:23:01;102206.69;;;21.83
78859;BMP280;68210;52.032;4.634;2023-06-04T11:25:04;102193.28;;;21.89
78859;BMP280;68210;52.032;4.634;2023-06-04T11:27:05;102196.81;;;21.86
78859;BMP280;68210;52.032;4.634;2023-06-04T11:29:10;102209.75;;;21.54
78859;BMP280;68210;52.032;4.634;2023-06-04T11:31:11;102192.78;;;21.49
78859;BMP280;68210;52.032;4.634;2023-06-04T11:33:12;102193.66;;;21.77
78859;BMP280;68210;52.032;4.634;2023-06-04T11:35:13;102190.91;;;21.77
78859;BMP280;68210;52.032;4.634;2023-06-04T11:37:13;102191.72;;;21.88
78859;BMP280;68210;52.032;4.634;2023-06-04T11:39:13;102187.44;;;22.11
78859;BMP280;68210;52.032;4.634;2023-06-04T11:41:15;102184.22;;;21.98